createdAt,value
2019-03-11T11:40:35.894Z,101602.18
2019-03-11T11:43:05.387Z,101601.61
2019-03-11T11:45:34.801Z,101602.21
2019-03-11T11:48:04.159Z,101606.66
2019-03-11T11:50:33.876Z,101596.36
2019-03-11T11:53:03.281Z,101598.21
2019-03-11T11:55:32.742Z,101610.22
2019-03-11T11:58:02.185Z,101600.91
2019-03-11T12:00:51.698Z,101600.02
2019-03-11T12:03:22.245Z,101628.94
2019-03-11T12:05:51.937Z,101634.00
2019-03-11T12:08:21.445Z,101633.95
2019-03-11T12:10:51.284Z,101620.85
2019-03-11T12:13:21.000Z,101640.13
2019-03-11T12:15:50.461Z,101644.32
2019-03-11T12:18:20.077Z,101645.38
2019-03-11T12:20:49.423Z,101653.09
2019-03-11T12:23:18.843Z,101671.55
2019-03-11T12:25:49.211Z,101665.36
2019-03-11T12:28:18.951Z,101678.03
2019-03-11T12:30:48.633Z,101665.77
2019-03-11T12:33:20.297Z,101662.14
2019-03-11T12:35:49.319Z,101663.77
2019-03-11T12:38:18.686Z,101670.82
2019-03-11T12:40:48.117Z,101679.08
2019-03-11T12:43:17.727Z,101672.54
2019-03-11T12:45:47.241Z,101691.52
2019-03-11T12:48:16.649Z,101696.53
2019-03-11T12:50:46.037Z,101702.52
2019-03-11T12:53:15.400Z,101705.47
2019-03-11T12:55:45.086Z,101698.74
2019-03-11T12:58:14.666Z,101701.09
2019-03-11T13:00:44.369Z,101740.83
2019-03-11T13:03:14.115Z,101708.66
2019-03-11T13:05:43.495Z,101722.47
2019-03-11T13:08:13.083Z,101712.97
2019-03-11T13:10:42.498Z,101723.42
2019-03-11T13:13:12.048Z,101714.52
2019-03-11T13:15:41.443Z,101720.11
2019-03-11T13:18:28.766Z,101739.30
2019-03-11T13:20:59.669Z,101716.68
2019-03-11T13:23:28.991Z,101731.73
2019-03-11T13:25:58.376Z,101711.09
2019-03-11T13:28:27.840Z,101731.61
2019-03-11T13:30:57.430Z,101763.59
2019-03-11T13:33:26.838Z,101792.80
2019-03-11T13:35:56.798Z,101776.61
2019-03-11T13:38:26.475Z,101761.24
2019-03-11T13:40:56.227Z,101764.63
2019-03-11T13:43:25.662Z,101757.12
2019-03-11T13:45:55.035Z,101767.62
2019-03-11T13:48:24.403Z,101755.83
2019-03-11T13:50:54.156Z,101743.75
2019-03-11T13:53:23.552Z,101739.58
2019-03-11T13:55:53.061Z,101749.66
2019-03-11T13:58:22.440Z,101755.27
2019-03-11T14:00:56.696Z,101756.83
2019-03-11T14:03:23.871Z,101764.28
2019-03-11T14:05:53.378Z,101767.41
2019-03-11T14:08:22.759Z,101753.03
2019-03-11T14:10:52.121Z,101761.30
2019-03-11T14:13:21.848Z,101764.01
2019-03-11T14:15:51.244Z,101768.89
2019-03-11T14:18:20.607Z,101799.31
2019-03-11T14:20:49.995Z,101797.36
2019-03-11T14:23:19.401Z,101817.17
2019-03-11T14:25:48.878Z,101795.65
2019-03-11T14:28:18.470Z,101803.72
2019-03-11T14:30:47.872Z,101789.11
2019-03-11T14:33:17.290Z,101801.82
2019-03-11T14:35:46.584Z,101830.34
2019-03-11T14:38:16.080Z,101839.98
2019-03-11T14:40:45.439Z,101839.34
2019-03-11T14:43:14.982Z,101827.34
2019-03-11T14:45:44.361Z,101834.23
2019-03-11T14:48:13.862Z,101835.84
2019-03-11T14:50:43.225Z,101839.05
2019-03-11T14:53:12.602Z,101830.53
2019-03-11T14:55:41.995Z,101827.08
2019-03-11T14:58:11.725Z,101836.70
2019-03-11T15:00:41.088Z,101847.59
2019-03-11T15:03:10.820Z,101851.89
2019-03-11T15:05:40.492Z,101860.94
2019-03-11T15:08:12.602Z,101877.89
2019-03-11T15:10:41.206Z,101845.48
2019-03-11T15:13:10.633Z,101855.84
2019-03-11T15:15:39.980Z,101859.92
2019-03-11T15:18:09.337Z,101840.31
2019-03-11T15:20:39.039Z,101850.75
2019-03-11T15:23:20.010Z,101857.04
2019-03-11T15:25:39.699Z,101858.61
2019-03-11T15:28:09.056Z,101857.58
2019-03-11T15:30:38.424Z,101850.67
2019-03-11T15:33:08.759Z,101852.93
2019-03-11T15:35:38.135Z,101845.88
2019-03-11T15:38:07.846Z,101835.96
2019-03-11T15:40:37.323Z,101863.84
2019-03-11T15:43:06.868Z,101850.83
2019-03-11T15:45:38.941Z,101861.73
2019-03-11T15:48:07.313Z,101857.81
2019-03-11T15:50:37.129Z,101873.80
2019-03-11T15:53:06.507Z,101872.77
2019-03-11T15:55:35.865Z,101871.05
2019-03-11T15:58:05.792Z,101867.28
2019-03-11T16:00:36.626Z,101865.91
2019-03-11T16:03:06.385Z,101880.41
2019-03-11T16:05:35.729Z,101872.73
2019-03-11T16:08:05.500Z,101864.09
2019-03-11T16:10:34.875Z,101878.64
2019-03-11T16:13:04.684Z,101942.13
2019-03-11T16:15:34.510Z,101875.76
2019-03-11T16:18:04.025Z,101885.54
2019-03-11T16:20:33.475Z,101899.61
2019-03-11T16:23:02.904Z,101889.18
2019-03-11T16:25:32.361Z,101912.49
2019-03-11T16:28:01.763Z,101909.19
2019-03-11T16:30:31.523Z,101916.89
2019-03-11T16:33:01.411Z,101909.03
2019-03-11T16:35:30.874Z,101937.22
2019-03-11T16:38:00.354Z,101939.23
2019-03-11T16:40:30.090Z,101928.47
2019-03-11T16:42:59.542Z,101941.67
2019-03-11T16:45:29.444Z,101944.53
2019-03-11T16:47:58.761Z,101967.69
2019-03-11T16:50:28.204Z,101980.97
2019-03-11T16:52:57.624Z,101985.92
2019-03-11T16:55:28.642Z,101987.06
2019-03-11T16:58:00.641Z,102004.84
2019-03-11T17:00:34.564Z,101995.11
2019-03-11T17:03:03.989Z,102034.02
2019-03-11T17:05:33.500Z,102014.95
2019-03-11T17:08:03.468Z,102022.25
2019-03-11T17:10:33.013Z,102014.91
2019-03-11T17:13:02.487Z,102030.20
2019-03-11T17:15:31.881Z,102040.84
2019-03-11T17:18:01.293Z,102050.36
2019-03-11T17:20:31.690Z,102051.38
2019-03-11T17:23:01.041Z,102065.06
2019-03-11T17:25:30.374Z,102056.72
2019-03-11T17:27:59.736Z,102058.70
2019-03-11T17:30:29.363Z,102066.07
2019-03-11T17:32:59.666Z,102065.34
2019-03-11T17:35:29.293Z,102083.45
2019-03-11T17:37:58.622Z,102073.05
2019-03-11T17:40:28.086Z,102081.41
2019-03-11T17:42:57.487Z,102094.00
2019-03-11T17:45:26.810Z,102100.09
2019-03-11T17:47:56.416Z,102113.57
2019-03-11T17:50:25.778Z,102128.50
2019-03-11T17:52:55.182Z,102115.75
2019-03-11T17:55:24.511Z,102125.06
2019-03-11T17:57:53.937Z,102128.44
2019-03-11T18:00:29.074Z,102126.27
2019-03-11T18:02:58.687Z,102130.58
2019-03-11T18:05:28.417Z,102147.99
2019-03-11T18:07:57.756Z,102148.46
2019-03-11T18:10:27.148Z,102133.33
2019-03-11T18:12:56.561Z,102161.20
2019-03-11T18:15:25.981Z,102168.48
2019-03-11T18:17:55.332Z,102161.57
2019-03-11T18:20:24.693Z,102168.61
2019-03-11T18:22:54.430Z,102180.88
2019-03-11T18:25:24.533Z,102167.14
2019-03-11T18:27:53.885Z,102192.11
2019-03-11T18:30:30.375Z,102195.25
2019-03-11T18:32:59.949Z,102201.39
2019-03-11T18:35:30.308Z,102235.94
2019-03-11T18:38:04.426Z,102226.58
2019-03-11T18:40:30.784Z,102229.11
2019-03-11T18:43:00.117Z,102255.40
2019-03-11T18:45:29.766Z,102240.84
2019-03-11T18:47:59.111Z,102250.64
2019-03-11T18:50:28.492Z,102238.59
2019-03-11T18:52:57.833Z,102230.37
2019-03-11T18:55:27.154Z,102233.89
2019-03-11T18:57:56.511Z,102238.61
2019-03-11T19:00:26.174Z,102237.29
2019-03-11T19:02:55.566Z,102242.12
2019-03-11T19:05:25.559Z,102237.40
2019-03-11T19:07:55.503Z,102241.41
2019-03-11T19:10:25.859Z,102242.96
2019-03-11T19:12:55.553Z,102246.46
2019-03-11T19:15:26.322Z,102255.73
2019-03-11T19:17:55.790Z,102263.52
2019-03-11T19:20:26.544Z,102263.66
2019-03-11T19:22:55.853Z,102264.96
2019-03-11T19:25:25.234Z,102267.64
2019-03-11T19:27:54.624Z,102267.23
2019-03-11T19:30:28.447Z,102269.48
2019-03-11T19:32:57.934Z,102272.73
2019-03-11T19:35:27.262Z,102280.38
2019-03-11T19:37:56.605Z,102283.27
2019-03-11T19:40:27.107Z,102284.09
2019-03-11T19:42:56.404Z,102296.62
2019-03-11T19:45:25.751Z,102303.76
2019-03-11T19:47:55.428Z,102303.16
2019-03-11T19:50:24.721Z,102303.92
2019-03-11T19:52:59.209Z,102309.91
2019-03-11T19:55:25.069Z,102308.94
2019-03-11T19:57:54.759Z,102301.39
2019-03-11T20:00:25.096Z,102303.27
2019-03-11T20:02:54.752Z,102309.38
2019-03-11T20:05:26.505Z,102317.64
2019-03-11T20:07:55.986Z,102312.03
2019-03-11T20:10:25.590Z,102326.98
2019-03-11T20:12:54.973Z,102320.82
2019-03-11T20:15:24.271Z,102331.86
2019-03-11T20:17:53.892Z,102334.30
2019-03-11T20:20:23.273Z,102330.56
2019-03-11T20:22:52.861Z,102339.25
2019-03-11T20:25:31.152Z,102340.96
2019-03-11T20:28:00.539Z,102345.11
2019-03-11T20:30:30.070Z,102350.30
2019-03-11T20:33:03.737Z,102348.42
2019-03-11T20:35:32.858Z,102357.05
2019-03-11T20:38:02.505Z,102350.38
2019-03-11T20:40:31.826Z,102366.31
2019-03-11T20:43:01.145Z,102362.25
2019-03-11T20:45:30.528Z,102362.15
2019-03-11T20:47:59.874Z,102366.29
2019-03-11T20:50:41.535Z,102371.34
2019-03-11T20:53:01.591Z,102372.95
2019-03-11T20:58:33.356Z,102379.93
2019-03-11T21:01:02.703Z,102386.77
2019-03-11T21:03:32.177Z,102380.44
2019-03-11T21:06:04.993Z,102382.45
2019-03-11T21:08:34.476Z,102389.02
2019-03-11T21:11:04.738Z,102386.35
2019-03-11T21:13:34.035Z,102391.95
2019-03-11T21:16:03.620Z,102389.01
2019-03-11T21:18:33.065Z,102389.81
2019-03-11T21:21:05.092Z,102393.53
2019-03-11T21:23:33.436Z,102391.52
2019-03-11T21:26:02.781Z,102393.95
2019-03-11T21:28:32.181Z,102393.64
2019-03-11T21:31:01.600Z,102399.70
2019-03-11T21:33:31.126Z,102404.06
2019-03-11T21:36:00.440Z,102401.30
2019-03-11T21:38:29.856Z,102400.56
2019-03-11T21:40:59.313Z,102410.36
2019-03-11T21:43:28.706Z,102404.50
2019-03-11T21:45:58.073Z,102400.91
2019-03-11T21:48:28.369Z,102397.35
2019-03-11T21:50:57.932Z,102400.91
2019-03-11T21:53:27.411Z,102402.18
2019-03-11T21:55:56.829Z,102399.25
2019-03-11T21:58:26.270Z,102409.53
2019-03-11T22:00:55.605Z,102406.37
2019-03-11T22:03:24.972Z,102409.72
2019-03-11T22:05:54.321Z,102409.64
2019-03-11T22:08:23.654Z,102412.16
2019-03-11T22:10:53.154Z,102418.13
2019-03-11T22:13:22.483Z,102414.98
2019-03-11T22:15:51.836Z,102422.54
2019-03-11T22:18:21.197Z,102423.24
2019-03-11T22:20:50.777Z,102420.39
2019-03-11T22:23:20.110Z,102428.80
2019-03-11T22:25:49.736Z,102431.58
2019-03-11T22:28:19.341Z,102430.50
2019-03-11T22:30:48.677Z,102431.80
2019-03-11T22:33:18.042Z,102436.83
2019-03-11T22:35:47.671Z,102433.37
2019-03-11T22:38:17.028Z,102431.92
2019-03-11T22:40:46.353Z,102437.81
2019-03-11T22:43:15.716Z,102444.63
2019-03-11T22:45:45.042Z,102438.22
2019-03-11T22:48:14.501Z,102436.73
2019-03-11T22:50:43.826Z,102437.35
2019-03-11T22:53:13.155Z,102437.97
2019-03-11T22:55:42.720Z,102438.23
2019-03-11T22:58:12.427Z,102446.23
2019-03-11T23:00:58.534Z,102457.02
2019-03-11T23:03:28.421Z,102453.34
2019-03-11T23:05:58.684Z,102457.92
2019-03-11T23:08:28.171Z,102458.05
2019-03-11T23:10:57.504Z,102455.38
2019-03-11T23:13:26.834Z,102452.88
2019-03-11T23:15:56.526Z,102447.89
2019-03-11T23:18:25.893Z,102445.10
2019-03-11T23:20:55.217Z,102439.52
2019-03-11T23:23:24.845Z,102441.95
2019-03-11T23:25:54.180Z,102433.02
2019-03-11T23:28:23.515Z,102431.72
2019-03-11T23:30:52.849Z,102429.01
2019-03-11T23:33:22.185Z,102434.80
2019-03-11T23:35:51.536Z,102438.81
2019-03-11T23:38:20.866Z,102424.28
2019-03-11T23:40:50.225Z,102420.52
2019-03-11T23:43:19.530Z,102420.52
2019-03-11T23:45:49.167Z,102412.55
2019-03-11T23:48:18.500Z,102412.84
2019-03-11T23:50:48.165Z,102415.27
2019-03-11T23:53:17.490Z,102408.98
2019-03-11T23:55:46.821Z,102406.72
2019-03-11T23:58:16.973Z,102397.54
